OTBH/IUD METAR and TAF weather

Enter ICAO airport designator
Station Type Date Time Source
OTBH METAR 2019/12/07 14:56 UTC NOAA

OTBH 071456Z 14006KT 9000 FEW060 HZ 23/12 A2998 RMK AO2A SLP152 WND DATA ESTMD ALSTG/SLP ESTMD $


Station Type Date Time Source
OTBH Decoded METAR 2019/12/07 14:56 UTC NOAA

Station name not available
Dec 07, 2019 - 09:56 AM EST / 2019.12.07 1456 UTC
Wind: from the SE (140 degrees) at 7 MPH (6 KT):0
Visibility: 5 mile(s):0
Sky conditions: mostly clear
Weather: haze
Temperature: 73 F (23 C)
Dew Point: 53 F (12 C)
Relative Humidity: 49%
Pressure (altimeter): 29.98 in. Hg (1015 hPa)
ob: OTBH 071456Z 14006KT 9000 FEW060 HZ 23/12 A2998 RMK AO2A SLP152 WND DATA ESTMD ALSTG/SLP ESTMD
cycle: 15

Station Type Date Time Source
OTBH TAF 2019/12/07 08:30 UTC NOAA

TAF TAF OTBH 070800Z 0708/0814 16012KT 9000 HZ FEW030 QNH2994INS
BECMG 0717/0718 16006KT 9000 HZ SCT140 QNH2995INS
BECMG 0802/0803 16006KT 8000 BR SCT100 QNH2998INS
BECMG 0805/0806 18009KT 9000 HZ SCT100 QNH2996INS
BECMG 0808/0809 30010G15KT 9000 HZ FEW100 QNH2995INS TX28/0711Z TN17/0800Z

Example: see airport list